ANG3 AYPY-YBBN
Flight info
| Callsign | ANG3 |
|---|---|
| Flight time | 2h 44m |
| Altitude | 36000 |
| Route | NUPTA1 NUPTA DCT APISO/N0473F350 B462 MK V153 MUNAR Y61 RUROX Y177 BN |
| Aircraft | B738/M-SDE2E3FGHIRWXY/LB1 |
Departure
| Time | 2026-04-29 11:10 |
|---|---|
| Airport | Port Moresby Jacksons International Airport (AYPY) |
Arrival
| Time | 2026-04-29 13:55 |
|---|---|
| Airport | Brisbane International Airport (YBBN) |
| Time | Latitude | Longitude | Altitude | Speed | Heading |
|---|---|---|---|---|---|
| 2026-04-29 10:43 | -9.43869 | 147.21217 | 136 ft | 0 kts | 241° |
| 2026-04-29 11:00 | -9.43866 | 147.21223 | 136 ft | 2 kts | 241° |
| 2026-04-29 11:00 | -9.43855 | 147.21243 | 136 ft | 2 kts | 241° |
| 2026-04-29 11:01 | -9.43846 | 147.21260 | 136 ft | 2 kts | 241° |
| 2026-04-29 11:01 | -9.43841 | 147.21271 | 136 ft | 2 kts | 261° |
| 2026-04-29 11:01 | -9.43842 | 147.21286 | 136 ft | 2 kts | 290° |
| 2026-04-29 11:01 | -9.43850 | 147.21300 | 136 ft | 2 kts | 320° |
| 2026-04-29 11:02 | -9.43856 | 147.21304 | 136 ft | 1 kts | 334° |
| 2026-04-29 11:02 | -9.43859 | 147.21306 | 136 ft | 0 kts | 330° |
| 2026-04-29 11:04 | -9.43847 | 147.21298 | 136 ft | 3 kts | 326° |
| 2026-04-29 11:05 | -9.43827 | 147.21286 | 136 ft | 3 kts | 330° |
| 2026-04-29 11:05 | -9.43802 | 147.21272 | 136 ft | 4 kts | 329° |
| 2026-04-29 11:05 | -9.43774 | 147.21256 | 136 ft | 4 kts | 329° |
| 2026-04-29 11:05 | -9.43740 | 147.21246 | 136 ft | 6 kts | 7° |
| 2026-04-29 11:06 | -9.43686 | 147.21275 | 136 ft | 10 kts | 19° |
| 2026-04-29 11:06 | -9.43606 | 147.21252 | 136 ft | 13 kts | 331° |
| 2026-04-29 11:06 | -9.43534 | 147.21208 | 136 ft | 11 kts | 329° |
| 2026-04-29 11:06 | -9.43460 | 147.21161 | 136 ft | 13 kts | 328° |
| 2026-04-29 11:07 | -9.43378 | 147.21112 | 136 ft | 14 kts | 328° |
| 2026-04-29 11:07 | -9.43300 | 147.21091 | 136 ft | 9 kts | 20° |
| 2026-04-29 11:07 | -9.43260 | 147.21129 | 136 ft | 6 kts | 55° |
| 2026-04-29 11:07 | -9.43237 | 147.21167 | 136 ft | 8 kts | 59° |
| 2026-04-29 11:08 | -9.43200 | 147.21230 | 136 ft | 12 kts | 58° |
| 2026-04-29 11:08 | -9.43160 | 147.21295 | 136 ft | 9 kts | 58° |
| 2026-04-29 11:08 | -9.43152 | 147.21307 | 136 ft | 0 kts | 58° |
| 2026-04-29 11:08 | -9.43149 | 147.21313 | 136 ft | 3 kts | 58° |
| 2026-04-29 11:09 | -9.43135 | 147.21335 | 136 ft | 4 kts | 60° |
| 2026-04-29 11:09 | -9.43120 | 147.21368 | 136 ft | 6 kts | 66° |
| 2026-04-29 11:09 | -9.43123 | 147.21413 | 136 ft | 9 kts | 132° |
| 2026-04-29 11:09 | -9.43264 | 147.21501 | 136 ft | 52 kts | 148° |
| 2026-04-29 11:10 | -9.43774 | 147.21815 | 136 ft | 116 kts | 148° |
| 2026-04-29 11:10 | -9.44599 | 147.22336 | 172 ft | 162 kts | 148° |
| 2026-04-29 11:10 | -9.45639 | 147.22961 | 489 ft | 184 kts | 153° |
| 2026-04-29 11:10 | -9.46760 | 147.23538 | 1230 ft | 183 kts | 153° |
| 2026-04-29 11:11 | -9.47794 | 147.24199 | 1982 ft | 178 kts | 144° |
| 2026-04-29 11:11 | -9.48894 | 147.24944 | 2216 ft | 202 kts | 148° |
| 2026-04-29 11:11 | -9.50142 | 147.25722 | 2673 ft | 215 kts | 148° |
| 2026-04-29 11:11 | -9.51483 | 147.26546 | 2971 ft | 237 kts | 148° |
| 2026-04-29 11:12 | -9.52950 | 147.27446 | 3360 ft | 253 kts | 148° |
| 2026-04-29 11:12 | -9.54461 | 147.28369 | 3945 ft | 261 kts | 148° |
| 2026-04-29 11:12 | -9.56110 | 147.29204 | 4587 ft | 268 kts | 164° |
| 2026-04-29 11:12 | -9.57984 | 147.29347 | 5281 ft | 272 kts | 180° |
| 2026-04-29 11:13 | -9.59891 | 147.29369 | 5948 ft | 276 kts | 175° |
| 2026-04-29 11:13 | -9.61811 | 147.29532 | 6628 ft | 279 kts | 173° |
| 2026-04-29 11:13 | -9.63720 | 147.29741 | 7322 ft | 281 kts | 172° |
| 2026-04-29 11:13 | -9.65677 | 147.29977 | 8009 ft | 285 kts | 171° |
| 2026-04-29 11:14 | -9.67660 | 147.30225 | 8714 ft | 289 kts | 171° |
| 2026-04-29 11:14 | -9.68981 | 147.30391 | 9172 ft | 291 kts | 171° |
| 2026-04-29 11:14 | -9.71659 | 147.30736 | 10097 ft | 296 kts | 171° |
| 2026-04-29 11:14 | -9.73749 | 147.31006 | 10456 ft | 314 kts | 171° |
| 2026-04-29 11:15 | -9.76047 | 147.31306 | 10651 ft | 336 kts | 171° |
| 2026-04-29 11:15 | -9.78428 | 147.31613 | 10954 ft | 353 kts | 171° |
| 2026-04-29 11:15 | -9.80911 | 147.31934 | 11569 ft | 359 kts | 171° |
| 2026-04-29 11:15 | -9.83456 | 147.32262 | 12128 ft | 367 kts | 171° |
| 2026-04-29 11:16 | -9.85995 | 147.32590 | 12898 ft | 368 kts | 171° |
| 2026-04-29 11:16 | -9.88560 | 147.32921 | 13575 ft | 371 kts | 171° |
| 2026-04-29 11:16 | -9.91168 | 147.33260 | 14283 ft | 374 kts | 171° |
| 2026-04-29 11:16 | -9.93763 | 147.33595 | 14977 ft | 376 kts | 171° |
| 2026-04-29 11:17 | -9.96365 | 147.33934 | 15646 ft | 378 kts | 171° |
| 2026-04-29 11:17 | -9.98981 | 147.34273 | 16316 ft | 381 kts | 171° |
| 2026-04-29 11:17 | -10.01612 | 147.34615 | 16941 ft | 383 kts | 171° |
| 2026-04-29 11:17 | -10.04227 | 147.34955 | 17558 ft | 385 kts | 171° |
| 2026-04-29 11:18 | -10.06908 | 147.35304 | 18156 ft | 388 kts | 171° |
| 2026-04-29 11:18 | -10.09552 | 147.35648 | 18739 ft | 390 kts | 171° |
| 2026-04-29 11:18 | -10.12260 | 147.36000 | 19308 ft | 392 kts | 171° |
| 2026-04-29 11:18 | -10.14953 | 147.36350 | 19865 ft | 394 kts | 171° |
| 2026-04-29 11:19 | -10.17691 | 147.36703 | 20403 ft | 397 kts | 172° |
| 2026-04-29 11:19 | -10.19486 | 147.36937 | 20741 ft | 398 kts | 172° |
| 2026-04-29 11:19 | -10.22231 | 147.37293 | 21252 ft | 400 kts | 172° |
| 2026-04-29 11:19 | -10.25005 | 147.37653 | 21747 ft | 403 kts | 172° |
| 2026-04-29 11:20 | -10.28770 | 147.38142 | 22373 ft | 406 kts | 172° |
| 2026-04-29 11:20 | -10.31605 | 147.38512 | 22838 ft | 408 kts | 172° |
| 2026-04-29 11:20 | -10.34446 | 147.38882 | 23285 ft | 410 kts | 172° |
| 2026-04-29 11:20 | -10.37252 | 147.39249 | 23712 ft | 412 kts | 172° |
| 2026-04-29 11:21 | -10.40075 | 147.39618 | 24104 ft | 415 kts | 172° |
| 2026-04-29 11:21 | -10.42931 | 147.39992 | 24526 ft | 416 kts | 172° |
| 2026-04-29 11:21 | -10.45815 | 147.40367 | 24908 ft | 419 kts | 172° |
| 2026-04-29 11:21 | -10.48709 | 147.40745 | 25302 ft | 421 kts | 172° |
| 2026-04-29 11:22 | -10.51589 | 147.41122 | 25653 ft | 423 kts | 173° |
| 2026-04-29 11:22 | -10.54535 | 147.41507 | 26026 ft | 425 kts | 173° |
| 2026-04-29 11:22 | -10.57440 | 147.41887 | 26360 ft | 427 kts | 173° |
| 2026-04-29 11:22 | -10.60394 | 147.42273 | 26685 ft | 429 kts | 173° |
| 2026-04-29 11:23 | -10.63359 | 147.42660 | 27025 ft | 431 kts | 173° |
| 2026-04-29 11:23 | -10.66334 | 147.43050 | 27323 ft | 433 kts | 173° |
| 2026-04-29 11:23 | -10.69329 | 147.43442 | 27629 ft | 435 kts | 173° |
| 2026-04-29 11:23 | -10.72295 | 147.43831 | 27931 ft | 437 kts | 173° |
| 2026-04-29 11:24 | -10.75309 | 147.44226 | 28214 ft | 439 kts | 173° |
| 2026-04-29 11:24 | -10.78345 | 147.44623 | 28497 ft | 441 kts | 173° |
| 2026-04-29 11:24 | -10.81403 | 147.45023 | 28771 ft | 443 kts | 173° |
| 2026-04-29 11:24 | -10.84426 | 147.45419 | 29046 ft | 444 kts | 173° |
| 2026-04-29 11:25 | -10.87478 | 147.45818 | 29339 ft | 445 kts | 174° |
| 2026-04-29 11:25 | -10.90548 | 147.46222 | 29660 ft | 445 kts | 174° |
| 2026-04-29 11:25 | -10.93615 | 147.46625 | 29974 ft | 445 kts | 174° |
| 2026-04-29 11:25 | -10.96648 | 147.47023 | 30293 ft | 444 kts | 174° |
| 2026-04-29 11:26 | -11.02753 | 147.47823 | 30932 ft | 443 kts | 174° |
| 2026-04-29 11:26 | -11.05818 | 147.48224 | 31235 ft | 443 kts | 174° |
| 2026-04-29 11:26 | -11.08834 | 147.48621 | 31530 ft | 443 kts | 174° |
| 2026-04-29 11:27 | -11.11895 | 147.49023 | 31847 ft | 442 kts | 174° |
| 2026-04-29 11:27 | -11.14945 | 147.49425 | 32143 ft | 442 kts | 174° |
| 2026-04-29 11:27 | -11.17946 | 147.49820 | 32432 ft | 441 kts | 174° |
| 2026-04-29 11:27 | -11.21013 | 147.50224 | 32706 ft | 441 kts | 174° |
| 2026-04-29 11:28 | -11.24031 | 147.50623 | 33005 ft | 440 kts | 175° |
| 2026-04-29 11:28 | -11.27094 | 147.51025 | 33266 ft | 440 kts | 175° |
| 2026-04-29 11:28 | -11.30097 | 147.51422 | 33542 ft | 440 kts | 175° |
| 2026-04-29 11:28 | -11.33136 | 147.51822 | 33809 ft | 439 kts | 175° |
| 2026-04-29 11:29 | -11.36150 | 147.52220 | 34057 ft | 439 kts | 175° |
| 2026-04-29 11:29 | -11.39168 | 147.52617 | 34336 ft | 438 kts | 175° |
| 2026-04-29 11:29 | -11.42203 | 147.53018 | 34596 ft | 437 kts | 175° |
| 2026-04-29 11:29 | -11.45226 | 147.53416 | 34843 ft | 437 kts | 175° |
| 2026-04-29 11:30 | -11.48234 | 147.53813 | 35092 ft | 436 kts | 175° |
| 2026-04-29 11:30 | -11.51253 | 147.54211 | 35333 ft | 436 kts | 175° |
| 2026-04-29 11:30 | -11.54302 | 147.54614 | 35581 ft | 435 kts | 175° |
| 2026-04-29 11:30 | -11.57298 | 147.55008 | 35806 ft | 434 kts | 175° |
| 2026-04-29 11:31 | -11.60330 | 147.55406 | 35964 ft | 436 kts | 175° |
| 2026-04-29 11:31 | -11.63432 | 147.55812 | 35972 ft | 441 kts | 175° |
| 2026-04-29 11:31 | -11.69612 | 147.56625 | 35970 ft | 450 kts | 175° |
| 2026-04-29 11:32 | -11.75936 | 147.57459 | 35999 ft | 457 kts | 175° |
| 2026-04-29 11:32 | -11.82288 | 147.58293 | 36039 ft | 460 kts | 175° |
| 2026-04-29 11:33 | -11.88673 | 147.59184 | 36068 ft | 459 kts | 174° |
| 2026-04-29 11:33 | -11.95063 | 147.59999 | 36073 ft | 458 kts | 175° |
| 2026-04-29 11:34 | -12.01473 | 147.60851 | 36074 ft | 458 kts | 174° |
| 2026-04-29 11:34 | -12.07861 | 147.61842 | 36074 ft | 458 kts | 173° |
| 2026-04-29 11:35 | -12.14225 | 147.62840 | 36074 ft | 459 kts | 173° |
| 2026-04-29 11:35 | -12.20514 | 147.63821 | 36074 ft | 459 kts | 173° |
| 2026-04-29 11:36 | -12.26903 | 147.64819 | 36073 ft | 459 kts | 173° |
| 2026-04-29 11:36 | -12.33283 | 147.65831 | 36074 ft | 459 kts | 172° |
| 2026-04-29 11:37 | -12.39678 | 147.66873 | 36074 ft | 458 kts | 173° |
| 2026-04-29 11:37 | -12.46047 | 147.67864 | 36074 ft | 459 kts | 173° |
| 2026-04-29 11:38 | -12.52422 | 147.68860 | 36074 ft | 459 kts | 172° |
| 2026-04-29 11:38 | -12.58797 | 147.69869 | 36074 ft | 459 kts | 173° |
| 2026-04-29 11:39 | -12.65221 | 147.70868 | 36074 ft | 459 kts | 173° |
| 2026-04-29 11:39 | -12.71601 | 147.71872 | 36074 ft | 459 kts | 173° |
| 2026-04-29 11:40 | -12.78019 | 147.72875 | 36074 ft | 459 kts | 173° |
| 2026-04-29 11:40 | -12.84398 | 147.73877 | 36074 ft | 459 kts | 173° |
| 2026-04-29 11:41 | -12.90785 | 147.74869 | 36074 ft | 459 kts | 173° |
| 2026-04-29 11:41 | -12.97197 | 147.75865 | 36074 ft | 459 kts | 173° |
| 2026-04-29 11:42 | -13.03641 | 147.76906 | 36074 ft | 462 kts | 173° |
| 2026-04-29 11:42 | -13.10112 | 147.77998 | 36074 ft | 467 kts | 173° |
| 2026-04-29 11:43 | -13.16643 | 147.79027 | 36077 ft | 472 kts | 174° |
| 2026-04-29 11:43 | -13.23232 | 147.80048 | 36072 ft | 470 kts | 174° |
| 2026-04-29 11:44 | -13.29805 | 147.81111 | 36072 ft | 468 kts | 173° |
| 2026-04-29 11:44 | -13.36285 | 147.82103 | 36075 ft | 468 kts | 175° |
| 2026-04-29 11:45 | -13.42838 | 147.83048 | 36075 ft | 470 kts | 174° |
| 2026-04-29 11:45 | -13.49445 | 147.84041 | 36073 ft | 469 kts | 174° |
| 2026-04-29 11:46 | -13.55983 | 147.85040 | 36074 ft | 468 kts | 174° |
| 2026-04-29 11:46 | -13.62589 | 147.86057 | 36075 ft | 469 kts | 174° |
| 2026-04-29 11:47 | -13.69163 | 147.87076 | 36073 ft | 468 kts | 174° |
| 2026-04-29 11:47 | -13.75735 | 147.88106 | 36075 ft | 469 kts | 174° |
| 2026-04-29 11:48 | -13.82282 | 147.89137 | 36073 ft | 469 kts | 174° |
| 2026-04-29 11:48 | -13.88867 | 147.90178 | 36074 ft | 469 kts | 174° |
| 2026-04-29 11:49 | -13.95435 | 147.91216 | 36074 ft | 470 kts | 174° |
| 2026-04-29 11:49 | -14.01983 | 147.92252 | 36073 ft | 469 kts | 174° |
| 2026-04-29 11:50 | -14.08590 | 147.93295 | 36074 ft | 470 kts | 174° |
| 2026-04-29 11:50 | -14.15150 | 147.94324 | 36072 ft | 468 kts | 174° |
| 2026-04-29 11:51 | -14.21694 | 147.95357 | 36075 ft | 468 kts | 174° |
| 2026-04-29 11:51 | -14.28251 | 147.96393 | 36076 ft | 470 kts | 174° |
| 2026-04-29 11:52 | -14.34868 | 147.97440 | 36073 ft | 470 kts | 174° |
| 2026-04-29 11:52 | -14.41430 | 147.98479 | 36073 ft | 468 kts | 174° |
| 2026-04-29 11:53 | -14.47958 | 147.99506 | 36075 ft | 470 kts | 174° |
| 2026-04-29 11:53 | -14.54548 | 148.00548 | 36073 ft | 470 kts | 174° |
| 2026-04-29 11:54 | -14.61063 | 148.01584 | 36074 ft | 469 kts | 174° |
| 2026-04-29 11:54 | -14.67618 | 148.02620 | 36074 ft | 470 kts | 174° |
| 2026-04-29 11:55 | -14.74213 | 148.03665 | 36073 ft | 469 kts | 174° |
| 2026-04-29 11:55 | -14.80766 | 148.04703 | 36074 ft | 469 kts | 174° |
| 2026-04-29 11:56 | -14.87347 | 148.05748 | 36074 ft | 470 kts | 174° |
| 2026-04-29 11:56 | -14.93940 | 148.06798 | 36073 ft | 469 kts | 175° |
| 2026-04-29 11:57 | -15.00504 | 148.07846 | 36073 ft | 466 kts | 175° |
| 2026-04-29 11:57 | -15.06997 | 148.08893 | 36074 ft | 466 kts | 176° |
| 2026-04-29 11:58 | -15.13453 | 148.09929 | 36074 ft | 467 kts | 175° |
| 2026-04-29 11:58 | -15.20038 | 148.10977 | 36075 ft | 469 kts | 176° |
| 2026-04-29 11:59 | -15.26567 | 148.12021 | 36072 ft | 466 kts | 176° |
| 2026-04-29 11:59 | -15.33079 | 148.13058 | 36074 ft | 466 kts | 176° |
| 2026-04-29 12:00 | -15.39586 | 148.14092 | 36075 ft | 467 kts | 176° |
| 2026-04-29 12:00 | -15.46130 | 148.15131 | 36074 ft | 468 kts | 176° |
| 2026-04-29 12:01 | -15.52702 | 148.16188 | 36073 ft | 466 kts | 176° |
| 2026-04-29 12:01 | -15.59172 | 148.17233 | 36074 ft | 466 kts | 176° |
| 2026-04-29 12:02 | -15.65744 | 148.18286 | 36075 ft | 467 kts | 176° |
| 2026-04-29 12:02 | -15.72284 | 148.19331 | 36073 ft | 466 kts | 176° |
| 2026-04-29 12:03 | -15.78782 | 148.20371 | 36074 ft | 466 kts | 176° |
| 2026-04-29 12:03 | -15.85317 | 148.21422 | 36074 ft | 468 kts | 176° |
| 2026-04-29 12:04 | -15.91856 | 148.22473 | 36073 ft | 467 kts | 176° |
| 2026-04-29 12:04 | -15.98409 | 148.23526 | 36072 ft | 465 kts | 176° |
| 2026-04-29 12:05 | -16.04894 | 148.24565 | 36075 ft | 467 kts | 176° |
| 2026-04-29 12:05 | -16.11405 | 148.25617 | 36074 ft | 467 kts | 176° |
| 2026-04-29 12:06 | -16.17947 | 148.26669 | 36074 ft | 468 kts | 176° |
| 2026-04-29 12:06 | -16.24501 | 148.27725 | 36073 ft | 466 kts | 175° |
| 2026-04-29 12:07 | -16.31017 | 148.28777 | 36075 ft | 466 kts | 176° |
| 2026-04-29 12:07 | -16.37557 | 148.29834 | 36074 ft | 467 kts | 176° |
| 2026-04-29 12:08 | -16.44043 | 148.30887 | 36073 ft | 465 kts | 176° |
| 2026-04-29 12:08 | -16.50523 | 148.31934 | 36075 ft | 467 kts | 176° |
| 2026-04-29 12:09 | -16.57083 | 148.32997 | 36074 ft | 468 kts | 176° |
| 2026-04-29 12:09 | -16.63593 | 148.34053 | 36073 ft | 467 kts | 175° |
| 2026-04-29 12:10 | -16.70149 | 148.35120 | 36073 ft | 466 kts | 176° |
| 2026-04-29 12:10 | -16.76666 | 148.36180 | 36075 ft | 467 kts | 176° |
| 2026-04-29 12:11 | -16.83211 | 148.37244 | 36072 ft | 466 kts | 176° |
| 2026-04-29 12:11 | -16.89721 | 148.38297 | 36075 ft | 467 kts | 176° |
| 2026-04-29 12:12 | -16.96228 | 148.39354 | 36074 ft | 466 kts | 176° |
| 2026-04-29 12:12 | -17.02708 | 148.40410 | 36078 ft | 465 kts | 176° |
| 2026-04-29 12:13 | -17.09183 | 148.41467 | 36087 ft | 461 kts | 176° |
| 2026-04-29 12:13 | -17.15617 | 148.42523 | 36099 ft | 460 kts | 176° |
| 2026-04-29 12:14 | -17.22092 | 148.43585 | 36114 ft | 462 kts | 176° |
| 2026-04-29 12:14 | -17.28504 | 148.44635 | 36124 ft | 461 kts | 176° |
| 2026-04-29 12:15 | -17.34913 | 148.45683 | 36129 ft | 461 kts | 176° |
| 2026-04-29 12:15 | -17.41364 | 148.46736 | 36127 ft | 461 kts | 176° |
| 2026-04-29 12:16 | -17.47770 | 148.47781 | 36129 ft | 462 kts | 176° |
| 2026-04-29 12:16 | -17.54100 | 148.48814 | 36126 ft | 460 kts | 176° |
| 2026-04-29 12:17 | -17.60480 | 148.49863 | 36129 ft | 461 kts | 176° |
| 2026-04-29 12:17 | -17.66815 | 148.50899 | 36128 ft | 462 kts | 176° |
| 2026-04-29 12:18 | -17.73185 | 148.51939 | 36128 ft | 461 kts | 176° |
| 2026-04-29 12:18 | -17.79552 | 148.52988 | 36128 ft | 460 kts | 176° |
| 2026-04-29 12:19 | -17.85889 | 148.54028 | 36129 ft | 462 kts | 176° |
| 2026-04-29 12:19 | -17.92273 | 148.55080 | 36126 ft | 462 kts | 176° |
| 2026-04-29 12:20 | -17.98660 | 148.56131 | 36127 ft | 460 kts | 176° |
| 2026-04-29 12:20 | -18.05019 | 148.57173 | 36128 ft | 461 kts | 176° |
| 2026-04-29 12:21 | -18.11401 | 148.58223 | 36130 ft | 461 kts | 176° |
| 2026-04-29 12:21 | -18.17766 | 148.59273 | 36131 ft | 462 kts | 176° |
| 2026-04-29 12:22 | -18.24158 | 148.60332 | 36132 ft | 462 kts | 176° |
| 2026-04-29 12:22 | -18.30553 | 148.61388 | 36133 ft | 460 kts | 176° |
| 2026-04-29 12:23 | -18.37003 | 148.62456 | 36136 ft | 461 kts | 176° |
| 2026-04-29 12:23 | -18.43434 | 148.63512 | 36138 ft | 462 kts | 176° |
| 2026-04-29 12:24 | -18.49888 | 148.64578 | 36144 ft | 462 kts | 176° |
| 2026-04-29 12:24 | -18.56267 | 148.65637 | 36153 ft | 461 kts | 176° |
| 2026-04-29 12:25 | -18.62738 | 148.66715 | 36156 ft | 463 kts | 176° |
| 2026-04-29 12:26 | -18.72400 | 148.68324 | 36154 ft | 463 kts | 176° |
| 2026-04-29 12:26 | -18.78859 | 148.69398 | 36154 ft | 462 kts | 176° |
| 2026-04-29 12:27 | -18.85265 | 148.70464 | 36155 ft | 461 kts | 176° |
| 2026-04-29 12:27 | -18.91671 | 148.71530 | 36156 ft | 462 kts | 176° |
| 2026-04-29 12:28 | -18.98130 | 148.72598 | 36155 ft | 465 kts | 176° |
| 2026-04-29 12:28 | -19.04588 | 148.73669 | 36153 ft | 464 kts | 176° |
| 2026-04-29 12:29 | -19.11027 | 148.74741 | 36155 ft | 464 kts | 176° |
| 2026-04-29 12:29 | -19.17454 | 148.75757 | 36156 ft | 466 kts | 177° |
| 2026-04-29 12:30 | -19.23873 | 148.76807 | 36153 ft | 463 kts | 177° |
| 2026-04-29 12:30 | -19.30296 | 148.77850 | 36156 ft | 465 kts | 177° |
| 2026-04-29 12:31 | -19.36550 | 148.78891 | 36154 ft | 465 kts | 177° |
| 2026-04-29 12:31 | -19.42815 | 148.79947 | 36156 ft | 465 kts | 176° |
| 2026-04-29 12:32 | -19.49252 | 148.81024 | 36154 ft | 464 kts | 177° |
| 2026-04-29 12:32 | -19.55669 | 148.82091 | 36154 ft | 463 kts | 177° |
| 2026-04-29 12:33 | -19.62068 | 148.83177 | 36155 ft | 465 kts | 177° |
| 2026-04-29 12:33 | -19.68302 | 148.84232 | 36154 ft | 463 kts | 177° |
| 2026-04-29 12:34 | -19.74725 | 148.85304 | 36156 ft | 464 kts | 177° |
| 2026-04-29 12:34 | -19.81123 | 148.86374 | 36156 ft | 464 kts | 177° |
| 2026-04-29 12:35 | -19.87263 | 148.87407 | 36154 ft | 465 kts | 177° |
| 2026-04-29 12:35 | -19.93538 | 148.88484 | 36153 ft | 468 kts | 173° |
| 2026-04-29 12:35 | -19.96850 | 148.89581 | 36147 ft | 476 kts | 162° |
| 2026-04-29 12:36 | -19.99770 | 148.91365 | 36155 ft | 485 kts | 149° |
| 2026-04-29 12:36 | -20.04850 | 148.96284 | 36160 ft | 493 kts | 141° |
| 2026-04-29 12:37 | -20.16736 | 148.99959 | 36152 ft | 442 kts | 207° |
| 2026-04-29 12:37 | -20.19408 | 148.98352 | 35869 ft | 443 kts | 217° |
| 2026-04-29 12:38 | -20.21936 | 148.96466 | 33233 ft | 479 kts | 220° |
| 2026-04-29 12:38 | -20.24009 | 148.94402 | 33067 ft | 444 kts | 235° |
| 2026-04-29 12:38 | -20.25730 | 148.91902 | 33137 ft | 421 kts | 233° |
| 2026-04-29 12:38 | -20.27937 | 148.89777 | 32960 ft | 410 kts | 215° |
| 2026-04-29 12:39 | -20.30053 | 148.88770 | 32986 ft | 401 kts | 201° |
| 2026-04-29 12:39 | -20.33033 | 148.88124 | 32995 ft | 388 kts | 192° |
| 2026-04-29 12:39 | -20.35771 | 148.88130 | 32993 ft | 392 kts | 178° |
| 2026-04-29 12:39 | -20.38477 | 148.88890 | 33014 ft | 406 kts | 167° |
| 2026-04-29 12:40 | -20.41182 | 148.89964 | 33007 ft | 414 kts | 166° |
| 2026-04-29 12:40 | -20.46458 | 148.92013 | 32991 ft | 413 kts | 167° |
| 2026-04-29 12:41 | -20.51822 | 148.94064 | 33494 ft | 414 kts | 167° |
| 2026-04-29 12:41 | -20.54568 | 148.95082 | 33765 ft | 416 kts | 167° |
| 2026-04-29 12:41 | -20.57371 | 148.96133 | 34102 ft | 417 kts | 167° |
| 2026-04-29 12:41 | -20.60119 | 148.97172 | 34414 ft | 418 kts | 167° |
| 2026-04-29 12:42 | -20.62892 | 148.98215 | 34764 ft | 417 kts | 167° |
| 2026-04-29 12:42 | -20.65638 | 148.99255 | 35161 ft | 415 kts | 167° |
| 2026-04-29 12:42 | -20.68389 | 149.00302 | 35508 ft | 414 kts | 167° |
| 2026-04-29 12:42 | -20.71109 | 149.01338 | 35851 ft | 414 kts | 167° |
| 2026-04-29 12:43 | -20.73847 | 149.02382 | 36134 ft | 414 kts | 168° |
| 2026-04-29 12:43 | -20.79454 | 149.04501 | 36159 ft | 428 kts | 167° |
| 2026-04-29 12:44 | -20.85257 | 149.06692 | 36158 ft | 441 kts | 167° |
| 2026-04-29 12:44 | -20.91204 | 149.08920 | 36156 ft | 453 kts | 167° |
| 2026-04-29 12:45 | -20.97230 | 149.11195 | 36155 ft | 464 kts | 167° |
| 2026-04-29 12:45 | -21.03390 | 149.13542 | 36155 ft | 473 kts | 167° |
| 2026-04-29 12:46 | -21.09724 | 149.15987 | 36152 ft | 477 kts | 167° |
| 2026-04-29 12:46 | -21.15949 | 149.18402 | 36153 ft | 476 kts | 168° |
| 2026-04-29 12:47 | -21.22309 | 149.20407 | 36155 ft | 470 kts | 173° |
| 2026-04-29 12:47 | -21.28690 | 149.22229 | 36155 ft | 470 kts | 172° |
| 2026-04-29 12:48 | -21.35012 | 149.24060 | 36155 ft | 470 kts | 172° |
| 2026-04-29 12:48 | -21.41422 | 149.25923 | 36155 ft | 471 kts | 172° |
| 2026-04-29 12:49 | -21.47657 | 149.27740 | 36154 ft | 470 kts | 172° |
| 2026-04-29 12:49 | -21.53831 | 149.29999 | 36156 ft | 476 kts | 166° |
| 2026-04-29 12:50 | -21.60095 | 149.32646 | 36155 ft | 477 kts | 166° |
| 2026-04-29 12:50 | -21.66377 | 149.35288 | 36155 ft | 477 kts | 166° |
| 2026-04-29 12:51 | -21.72609 | 149.37911 | 36155 ft | 477 kts | 166° |
| 2026-04-29 12:51 | -21.78916 | 149.40564 | 36155 ft | 477 kts | 166° |
| 2026-04-29 12:52 | -21.85215 | 149.43219 | 36155 ft | 477 kts | 166° |
| 2026-04-29 12:52 | -21.91480 | 149.45859 | 36155 ft | 477 kts | 166° |
| 2026-04-29 12:53 | -21.97676 | 149.48474 | 36164 ft | 477 kts | 166° |
| 2026-04-29 12:53 | -22.03907 | 149.51106 | 36185 ft | 477 kts | 166° |
| 2026-04-29 12:54 | -22.10127 | 149.53735 | 36207 ft | 477 kts | 166° |
| 2026-04-29 12:54 | -22.16354 | 149.56372 | 36209 ft | 477 kts | 166° |
| 2026-04-29 12:55 | -22.22589 | 149.59013 | 36209 ft | 477 kts | 166° |
| 2026-04-29 12:55 | -22.28837 | 149.61661 | 36209 ft | 477 kts | 166° |
| 2026-04-29 12:56 | -22.35066 | 149.64304 | 36209 ft | 477 kts | 166° |
| 2026-04-29 12:56 | -22.41301 | 149.66954 | 36209 ft | 477 kts | 166° |
| 2026-04-29 12:57 | -22.47540 | 149.69604 | 36209 ft | 477 kts | 166° |
| 2026-04-29 12:57 | -22.53772 | 149.72258 | 36209 ft | 477 kts | 166° |
| 2026-04-29 12:58 | -22.60025 | 149.74921 | 36209 ft | 477 kts | 166° |
| 2026-04-29 12:58 | -22.66253 | 149.77577 | 36209 ft | 478 kts | 166° |
| 2026-04-29 12:59 | -22.72494 | 149.80241 | 36209 ft | 478 kts | 166° |
| 2026-04-29 12:59 | -22.78716 | 149.82901 | 36209 ft | 478 kts | 166° |
| 2026-04-29 13:00 | -22.84970 | 149.85576 | 36209 ft | 478 kts | 166° |
| 2026-04-29 13:00 | -22.91213 | 149.88249 | 36209 ft | 477 kts | 166° |
| 2026-04-29 13:01 | -22.97420 | 149.90910 | 36209 ft | 477 kts | 166° |
| 2026-04-29 13:01 | -23.03703 | 149.93607 | 36209 ft | 476 kts | 166° |
| 2026-04-29 13:02 | -23.09884 | 149.96263 | 36258 ft | 473 kts | 166° |
| 2026-04-29 13:02 | -23.14671 | 149.98323 | 36343 ft | 475 kts | 166° |
| 2026-04-29 13:03 | -23.21282 | 150.01166 | 36344 ft | 476 kts | 166° |
| 2026-04-29 13:03 | -23.27437 | 150.03816 | 36343 ft | 475 kts | 166° |
| 2026-04-29 13:04 | -23.33706 | 150.06520 | 36344 ft | 475 kts | 166° |
| 2026-04-29 13:04 | -23.39918 | 150.09198 | 36344 ft | 475 kts | 166° |
| 2026-04-29 13:05 | -23.46126 | 150.11881 | 36344 ft | 475 kts | 166° |
| 2026-04-29 13:05 | -23.52358 | 150.14575 | 36344 ft | 475 kts | 166° |
| 2026-04-29 13:06 | -23.58559 | 150.17258 | 36344 ft | 475 kts | 166° |
| 2026-04-29 13:06 | -23.64800 | 150.19961 | 36344 ft | 475 kts | 166° |
| 2026-04-29 13:07 | -23.71061 | 150.22676 | 36344 ft | 475 kts | 166° |
| 2026-04-29 13:07 | -23.77286 | 150.25378 | 36344 ft | 475 kts | 166° |
| 2026-04-29 13:08 | -23.83505 | 150.28081 | 36344 ft | 475 kts | 166° |
| 2026-04-29 13:08 | -23.89743 | 150.30795 | 36344 ft | 475 kts | 166° |
| 2026-04-29 13:09 | -23.96030 | 150.33531 | 36344 ft | 475 kts | 166° |
| 2026-04-29 13:09 | -24.02255 | 150.36246 | 36344 ft | 475 kts | 166° |
| 2026-04-29 13:10 | -24.08509 | 150.38976 | 36344 ft | 475 kts | 166° |
| 2026-04-29 13:10 | -24.14706 | 150.41681 | 36344 ft | 475 kts | 166° |
| 2026-04-29 13:11 | -24.20897 | 150.44389 | 36344 ft | 475 kts | 166° |
| 2026-04-29 13:11 | -24.27106 | 150.47107 | 36344 ft | 475 kts | 166° |
| 2026-04-29 13:12 | -24.33309 | 150.49826 | 36344 ft | 475 kts | 166° |
| 2026-04-29 13:12 | -24.39580 | 150.52577 | 36344 ft | 475 kts | 166° |
| 2026-04-29 13:13 | -24.45767 | 150.55293 | 36344 ft | 476 kts | 166° |
| 2026-04-29 13:13 | -24.51746 | 150.58833 | 36347 ft | 487 kts | 155° |
| 2026-04-29 13:14 | -24.57489 | 150.62892 | 36344 ft | 487 kts | 155° |
| 2026-04-29 13:14 | -24.63253 | 150.67011 | 36343 ft | 487 kts | 154° |
| 2026-04-29 13:15 | -24.68972 | 150.71138 | 36344 ft | 488 kts | 154° |
| 2026-04-29 13:15 | -24.74709 | 150.75308 | 36344 ft | 488 kts | 154° |
| 2026-04-29 13:16 | -24.80404 | 150.79466 | 36344 ft | 488 kts | 154° |
| 2026-04-29 13:16 | -24.86154 | 150.83673 | 36344 ft | 488 kts | 154° |
| 2026-04-29 13:17 | -24.91904 | 150.87888 | 36344 ft | 488 kts | 154° |
| 2026-04-29 13:17 | -24.97625 | 150.92088 | 36224 ft | 490 kts | 154° |
| 2026-04-29 13:18 | -25.03291 | 150.96262 | 36208 ft | 486 kts | 154° |
| 2026-04-29 13:18 | -25.08970 | 151.00442 | 36210 ft | 487 kts | 154° |
| 2026-04-29 13:19 | -25.14265 | 151.04346 | 36209 ft | 487 kts | 154° |
| 2026-04-29 13:19 | -25.20130 | 151.08675 | 36209 ft | 487 kts | 154° |
| 2026-04-29 13:20 | -25.25846 | 151.12897 | 36209 ft | 486 kts | 154° |
| 2026-04-29 13:20 | -25.31522 | 151.17096 | 36209 ft | 486 kts | 153° |
| 2026-04-29 13:21 | -25.37227 | 151.21321 | 36209 ft | 486 kts | 153° |
| 2026-04-29 13:21 | -25.42906 | 151.25532 | 36209 ft | 486 kts | 153° |
| 2026-04-29 13:22 | -25.48607 | 151.29764 | 36209 ft | 486 kts | 153° |
| 2026-04-29 13:22 | -25.54326 | 151.34012 | 36209 ft | 486 kts | 153° |
| 2026-04-29 13:23 | -25.59993 | 151.38225 | 36209 ft | 486 kts | 153° |
| 2026-04-29 13:23 | -25.65697 | 151.42471 | 36241 ft | 486 kts | 153° |
| 2026-04-29 13:24 | -25.71356 | 151.46690 | 36302 ft | 486 kts | 153° |
| 2026-04-29 13:24 | -25.76833 | 151.51356 | 36344 ft | 494 kts | 146° |
| 2026-04-29 13:25 | -25.82030 | 151.56506 | 36335 ft | 495 kts | 145° |
| 2026-04-29 13:25 | -25.89808 | 151.64209 | 36309 ft | 494 kts | 145° |
| 2026-04-29 13:26 | -25.94897 | 151.69263 | 36295 ft | 490 kts | 145° |
| 2026-04-29 13:26 | -25.97385 | 151.71750 | 36294 ft | 474 kts | 145° |
| 2026-04-29 13:26 | -25.99816 | 151.74179 | 35916 ft | 465 kts | 145° |
| 2026-04-29 13:27 | -26.02192 | 151.76549 | 35376 ft | 460 kts | 145° |
| 2026-04-29 13:27 | -26.04551 | 151.78902 | 34815 ft | 455 kts | 146° |
| 2026-04-29 13:27 | -26.06914 | 151.81259 | 34245 ft | 451 kts | 146° |
| 2026-04-29 13:27 | -26.09229 | 151.83569 | 33681 ft | 447 kts | 146° |
| 2026-04-29 13:28 | -26.11174 | 151.85512 | 33203 ft | 444 kts | 146° |
| 2026-04-29 13:28 | -26.13335 | 151.87672 | 32668 ft | 441 kts | 145° |
| 2026-04-29 13:28 | -26.18033 | 151.92378 | 31499 ft | 434 kts | 145° |
| 2026-04-29 13:29 | -26.20383 | 151.94736 | 30916 ft | 430 kts | 145° |
| 2026-04-29 13:29 | -26.22555 | 151.96918 | 30380 ft | 426 kts | 145° |
| 2026-04-29 13:29 | -26.24748 | 151.99121 | 29836 ft | 422 kts | 145° |
| 2026-04-29 13:29 | -26.26921 | 152.01306 | 29301 ft | 418 kts | 145° |
| 2026-04-29 13:30 | -26.29087 | 152.03484 | 28767 ft | 415 kts | 144° |
| 2026-04-29 13:30 | -26.31204 | 152.05615 | 28243 ft | 411 kts | 144° |
| 2026-04-29 13:30 | -26.33311 | 152.07738 | 27717 ft | 407 kts | 144° |
| 2026-04-29 13:30 | -26.35408 | 152.09851 | 27192 ft | 403 kts | 144° |
| 2026-04-29 13:31 | -26.37434 | 152.11894 | 26681 ft | 400 kts | 144° |
| 2026-04-29 13:31 | -26.39461 | 152.13937 | 26169 ft | 396 kts | 144° |
| 2026-04-29 13:31 | -26.41025 | 152.15515 | 25772 ft | 394 kts | 144° |
| 2026-04-29 13:31 | -26.42833 | 152.17340 | 25313 ft | 391 kts | 144° |
| 2026-04-29 13:32 | -26.44579 | 152.19096 | 24886 ft | 386 kts | 139° |
| 2026-04-29 13:32 | -26.46591 | 152.20999 | 24762 ft | 370 kts | 142° |
| 2026-04-29 13:32 | -26.48560 | 152.22842 | 24354 ft | 364 kts | 139° |
| 2026-04-29 13:32 | -26.50426 | 152.24782 | 23938 ft | 359 kts | 137° |
| 2026-04-29 13:33 | -26.52237 | 152.26717 | 23470 ft | 355 kts | 137° |
| 2026-04-29 13:33 | -26.54031 | 152.28595 | 22999 ft | 352 kts | 138° |
| 2026-04-29 13:33 | -26.55830 | 152.30450 | 22517 ft | 349 kts | 138° |
| 2026-04-29 13:33 | -26.57636 | 152.32303 | 22033 ft | 346 kts | 138° |
| 2026-04-29 13:34 | -26.59435 | 152.34140 | 21548 ft | 344 kts | 138° |
| 2026-04-29 13:34 | -26.61204 | 152.35942 | 21073 ft | 341 kts | 139° |
| 2026-04-29 13:34 | -26.62970 | 152.37738 | 20594 ft | 339 kts | 139° |
| 2026-04-29 13:34 | -26.64697 | 152.39508 | 20126 ft | 336 kts | 138° |
| 2026-04-29 13:35 | -26.66421 | 152.41293 | 19655 ft | 334 kts | 138° |
| 2026-04-29 13:35 | -26.68148 | 152.43079 | 19181 ft | 331 kts | 138° |
| 2026-04-29 13:35 | -26.69850 | 152.44838 | 18716 ft | 329 kts | 138° |
| 2026-04-29 13:35 | -26.70935 | 152.45961 | 18417 ft | 328 kts | 138° |
| 2026-04-29 13:36 | -26.73156 | 152.48261 | 17807 ft | 324 kts | 138° |
| 2026-04-29 13:36 | -26.74817 | 152.49980 | 17349 ft | 322 kts | 138° |
| 2026-04-29 13:36 | -26.76441 | 152.51660 | 16901 ft | 320 kts | 138° |
| 2026-04-29 13:36 | -26.78096 | 152.53371 | 16445 ft | 318 kts | 138° |
| 2026-04-29 13:37 | -26.79725 | 152.55057 | 15994 ft | 316 kts | 138° |
| 2026-04-29 13:37 | -26.81345 | 152.56734 | 15546 ft | 313 kts | 138° |
| 2026-04-29 13:37 | -26.82956 | 152.58401 | 15098 ft | 311 kts | 138° |
| 2026-04-29 13:37 | -26.84539 | 152.60042 | 14660 ft | 309 kts | 138° |
| 2026-04-29 13:38 | -26.86112 | 152.61671 | 14221 ft | 307 kts | 138° |
| 2026-04-29 13:38 | -26.87661 | 152.63277 | 13791 ft | 305 kts | 138° |
| 2026-04-29 13:38 | -26.89248 | 152.64917 | 13348 ft | 303 kts | 138° |
| 2026-04-29 13:38 | -26.90586 | 152.66298 | 12977 ft | 302 kts | 138° |
| 2026-04-29 13:39 | -26.92013 | 152.67772 | 12578 ft | 300 kts | 138° |
| 2026-04-29 13:39 | -26.93315 | 152.69116 | 12215 ft | 298 kts | 138° |
| 2026-04-29 13:39 | -26.94797 | 152.70647 | 11712 ft | 300 kts | 138° |
| 2026-04-29 13:39 | -26.96168 | 152.72064 | 11329 ft | 297 kts | 138° |
| 2026-04-29 13:40 | -26.97778 | 152.73717 | 10902 ft | 294 kts | 138° |
| 2026-04-29 13:40 | -26.99285 | 152.75293 | 10502 ft | 292 kts | 133° |
| 2026-04-29 13:40 | -27.00366 | 152.77130 | 10076 ft | 290 kts | 115° |
| 2026-04-29 13:40 | -27.01112 | 152.79161 | 9830 ft | 282 kts | 112° |
| 2026-04-29 13:41 | -27.01613 | 152.80543 | 9631 ft | 278 kts | 113° |
| 2026-04-29 13:41 | -27.02579 | 152.83154 | 9169 ft | 274 kts | 113° |
| 2026-04-29 13:41 | -27.03265 | 152.85004 | 8826 ft | 273 kts | 113° |
| 2026-04-29 13:41 | -27.03904 | 152.86731 | 8713 ft | 259 kts | 113° |
| 2026-04-29 13:42 | -27.04614 | 152.88650 | 8589 ft | 244 kts | 113° |
| 2026-04-29 13:42 | -27.05100 | 152.89970 | 8512 ft | 232 kts | 113° |
| 2026-04-29 13:42 | -27.05785 | 152.91827 | 8371 ft | 218 kts | 113° |
| 2026-04-29 13:42 | -27.06353 | 152.93367 | 8159 ft | 209 kts | 114° |
| 2026-04-29 13:43 | -27.06893 | 152.94829 | 7963 ft | 200 kts | 114° |
| 2026-04-29 13:43 | -27.07377 | 152.96275 | 7596 ft | 199 kts | 106° |
| 2026-04-29 13:43 | -27.07650 | 152.97586 | 7333 ft | 196 kts | 103° |
| 2026-04-29 13:43 | -27.07962 | 152.99127 | 6959 ft | 195 kts | 104° |
| 2026-04-29 13:44 | -27.08262 | 153.00588 | 6625 ft | 194 kts | 104° |
| 2026-04-29 13:44 | -27.08556 | 153.02004 | 6292 ft | 193 kts | 104° |
| 2026-04-29 13:44 | -27.08859 | 153.03468 | 6074 ft | 187 kts | 104° |
| 2026-04-29 13:44 | -27.09159 | 153.04921 | 6089 ft | 191 kts | 104° |
| 2026-04-29 13:45 | -27.09455 | 153.06354 | 6082 ft | 193 kts | 104° |
| 2026-04-29 13:45 | -27.09761 | 153.07829 | 6043 ft | 193 kts | 104° |
| 2026-04-29 13:45 | -27.10068 | 153.09320 | 5850 ft | 194 kts | 104° |
| 2026-04-29 13:45 | -27.10375 | 153.10808 | 5606 ft | 192 kts | 104° |
| 2026-04-29 13:46 | -27.10620 | 153.12270 | 5368 ft | 190 kts | 95° |
| 2026-04-29 13:46 | -27.10662 | 153.13785 | 5121 ft | 190 kts | 92° |
| 2026-04-29 13:46 | -27.10697 | 153.15227 | 4880 ft | 189 kts | 92° |
| 2026-04-29 13:46 | -27.10739 | 153.16711 | 4679 ft | 187 kts | 92° |
| 2026-04-29 13:47 | -27.10781 | 153.18179 | 4590 ft | 187 kts | 93° |
| 2026-04-29 13:47 | -27.10911 | 153.19655 | 4437 ft | 189 kts | 105° |
| 2026-04-29 13:47 | -27.11279 | 153.21072 | 4386 ft | 187 kts | 107° |
| 2026-04-29 13:47 | -27.11636 | 153.22482 | 4323 ft | 188 kts | 107° |
| 2026-04-29 13:48 | -27.12184 | 153.23822 | 4246 ft | 187 kts | 132° |
| 2026-04-29 13:48 | -27.13252 | 153.24618 | 4198 ft | 187 kts | 162° |
| 2026-04-29 13:48 | -27.14506 | 153.25063 | 4133 ft | 188 kts | 162° |
| 2026-04-29 13:48 | -27.15749 | 153.25449 | 4055 ft | 186 kts | 177° |
| 2026-04-29 13:49 | -27.16972 | 153.25188 | 3793 ft | 191 kts | 207° |
| 2026-04-29 13:49 | -27.18121 | 153.24483 | 3404 ft | 186 kts | 208° |
| 2026-04-29 13:49 | -27.19285 | 153.23827 | 3092 ft | 182 kts | 207° |
| 2026-04-29 13:49 | -27.20396 | 153.23212 | 2795 ft | 174 kts | 207° |
| 2026-04-29 13:50 | -27.21358 | 153.22667 | 2580 ft | 170 kts | 208° |
| 2026-04-29 13:50 | -27.22438 | 153.22051 | 2353 ft | 172 kts | 208° |
| 2026-04-29 13:50 | -27.23522 | 153.21429 | 2117 ft | 171 kts | 208° |
| 2026-04-29 13:50 | -27.24564 | 153.20831 | 1893 ft | 171 kts | 208° |
| 2026-04-29 13:51 | -27.25591 | 153.20242 | 1672 ft | 170 kts | 208° |
| 2026-04-29 13:51 | -27.26634 | 153.19643 | 1449 ft | 170 kts | 208° |
| 2026-04-29 13:51 | -27.27664 | 153.19052 | 1228 ft | 169 kts | 208° |
| 2026-04-29 13:51 | -27.28560 | 153.18538 | 1035 ft | 169 kts | 208° |
| 2026-04-29 13:52 | -27.29651 | 153.17911 | 801 ft | 168 kts | 208° |
| 2026-04-29 13:52 | -27.30686 | 153.17322 | 579 ft | 167 kts | 207° |
| 2026-04-29 13:52 | -27.31575 | 153.16812 | 392 ft | 168 kts | 209° |
| 2026-04-29 13:52 | -27.32401 | 153.16243 | 401 ft | 165 kts | 217° |
| 2026-04-29 13:53 | -27.35318 | 153.14410 | 441 ft | 182 kts | 199° |
| 2026-04-29 13:53 | -27.36416 | 153.13943 | 352 ft | 177 kts | 204° |
| 2026-04-29 13:54 | -27.38616 | 153.12775 | 21 ft | 109 kts | 209° |
| 2026-04-29 13:54 | -27.38935 | 153.12546 | 21 ft | 50 kts | 227° |
| 2026-04-29 13:55 | -27.39018 | 153.12428 | 21 ft | 7 kts | 236° |
| 2026-04-29 13:55 | -27.39041 | 153.12390 | 21 ft | 17 kts | 236° |
| 2026-04-29 13:55 | -27.39108 | 153.12276 | 21 ft | 29 kts | 236° |